Shimo-ihira, Japan

3:23 PM JST on December 08, 2016 (GMT +0900)
Obihiro | | Change Station

Elev 489 ft 42.73 °N, 143.22 °E | Updated 23 minutes ago

Partly Cloudy
Partly Cloudy
28 °F
Feels Like 28 °F
N
2
Wind Variable Wind from ENE

Today
High -- | Low -- °F
--% Chance of Precip.
Yesterday
High -- | Low -- °F
Precip. -- in
Pressure 29.92 in
Visibility 6.2 miles
Clouds Few 4000 ft
Dew Point 10 °F
Humidity 47%
Rainfall 0.00 in
Snow Depth Not available.
6:44 AM 3:53 PM
First Quarter, 60% visible
METAR RJCB 080600Z 07002KT 9999 FEW040 M02/M12 Q1013
Pressure 29.92 in
Visibility 6.2 miles
Clouds Few 4000 ft
Dew Point 10 °F
Humidity 47%
Rainfall 0.00 in
Snow Depth Not available.
6:44 AM 3:53 PM
First Quarter, 60% visible
METAR RJCB 080600Z 07002KT 9999 FEW040 M02/M12 Q1013

10-Day Weather Forecast

No radar image for this location.
×

Almanac

Astronomy

Dec. 08, 2016 Rise Set
Actual Time
Civil Twilight
Nautical Twilight
Astronomical Twilight
Moon
Length of Visible Light
Length of Day
Tomorrow will be .
, % of the Moon is Illuminated

Today's Extremes

Country Highs Country Lows

Community

WunderPhotos

Upload Photos

1,956,259 photos uploaded!

WunderBlog® & News

Nearby

Air Quality

  Air Quality AQ Index Pollutant
Not available.

Snow Depth

Station Depth Elevation

Earthquake Activity

City Distance Mag. Time & Date
Minimum magnitude displayed is 2.5.

Coastal Water Temperatures

Place Temperature

Stations

Nearby Weather Stations

Station Location Temp. Windchill Dew Point Humidity Wind Precip. Elev Updated Type